sensor_id;sensor_type;location;lat;lon;timestamp;pressure;altitude;pressure_sealevel;temperature
75822;BMP180;64454;51.984;9.838;2023-02-19T00:00:11;100035.00;;;9.60
75822;BMP180;64454;51.984;9.838;2023-02-19T00:02:40;100040.00;;;9.40
75822;BMP180;64454;51.984;9.838;2023-02-19T00:05:09;100056.00;;;9.30
75822;BMP180;64454;51.984;9.838;2023-02-19T00:07:36;100057.00;;;9.30
75822;BMP180;64454;51.984;9.838;2023-02-19T00:10:03;100053.00;;;9.30
75822;BMP180;64454;51.984;9.838;2023-02-19T00:12:29;100064.00;;;9.50
75822;BMP180;64454;51.984;9.838;2023-02-19T00:14:56;100064.00;;;9.50
75822;BMP180;64454;51.984;9.838;2023-02-19T00:17:23;100065.00;;;9.50
75822;BMP180;64454;51.984;9.838;2023-02-19T00:19:50;100054.00;;;9.50
75822;BMP180;64454;51.984;9.838;2023-02-19T00:22:18;100046.00;;;9.60
75822;BMP180;64454;51.984;9.838;2023-02-19T00:24:45;100045.00;;;9.60
75822;BMP180;64454;51.984;9.838;2023-02-19T00:27:11;100038.00;;;9.60
75822;BMP180;64454;51.984;9.838;2023-02-19T00:29:38;100040.00;;;9.50
75822;BMP180;64454;51.984;9.838;2023-02-19T00:32:05;100035.00;;;9.60
75822;BMP180;64454;51.984;9.838;2023-02-19T00:34:32;100030.00;;;9.60
75822;BMP180;64454;51.984;9.838;2023-02-19T00:36:59;100030.00;;;10.00
75822;BMP180;64454;51.984;9.838;2023-02-19T00:39:27;100035.00;;;9.80
75822;BMP180;64454;51.984;9.838;2023-02-19T00:41:54;100028.00;;;9.80
75822;BMP180;64454;51.984;9.838;2023-02-19T00:44:21;100024.00;;;9.80
75822;BMP180;64454;51.984;9.838;2023-02-19T00:46:48;100011.00;;;9.60
75822;BMP180;64454;51.984;9.838;2023-02-19T00:49:20;100015.00;;;9.60
75822;BMP180;64454;51.984;9.838;2023-02-19T00:51:48;100008.00;;;9.50
75822;BMP180;64454;51.984;9.838;2023-02-19T00:54:17;100002.00;;;9.60
75822;BMP180;64454;51.984;9.838;2023-02-19T00:56:48;99995.00;;;9.40
75822;BMP180;64454;51.984;9.838;2023-02-19T00:59:18;99993.00;;;9.30
75822;BMP180;64454;51.984;9.838;2023-02-19T01:01:46;99999.00;;;9.40
75822;BMP180;64454;51.984;9.838;2023-02-19T01:04:15;100000.00;;;9.40
75822;BMP180;64454;51.984;9.838;2023-02-19T01:06:43;99987.00;;;9.50
75822;BMP180;64454;51.984;9.838;2023-02-19T01:09:10;99978.00;;;9.40
75822;BMP180;64454;51.984;9.838;2023-02-19T01:11:37;99979.00;;;9.20
75822;BMP180;64454;51.984;9.838;2023-02-19T01:14:05;99973.00;;;9.20
75822;BMP180;64454;51.984;9.838;2023-02-19T01:16:32;99956.00;;;9.20
75822;BMP180;64454;51.984;9.838;2023-02-19T01:18:59;99958.00;;;9.20
75822;BMP180;64454;51.984;9.838;2023-02-19T01:21:28;99961.00;;;9.20
75822;BMP180;64454;51.984;9.838;2023-02-19T01:23:57;99959.00;;;9.20
75822;BMP180;64454;51.984;9.838;2023-02-19T01:26:27;99960.00;;;9.20
75822;BMP180;64454;51.984;9.838;2023-02-19T01:28:54;99960.00;;;9.20
75822;BMP180;64454;51.984;9.838;2023-02-19T01:31:24;99963.00;;;9.40
75822;BMP180;64454;51.984;9.838;2023-02-19T01:33:53;99960.00;;;9.40
75822;BMP180;64454;51.984;9.838;2023-02-19T01:36:21;99950.00;;;9.40
75822;BMP180;64454;51.984;9.838;2023-02-19T01:38:48;99930.00;;;9.40
75822;BMP180;64454;51.984;9.838;2023-02-19T01:41:19;99928.00;;;9.50
75822;BMP180;64454;51.984;9.838;2023-02-19T01:43:59;99941.00;;;9.40
75822;BMP180;64454;51.984;9.838;2023-02-19T01:46:29;99934.00;;;9.70
75822;BMP180;64454;51.984;9.838;2023-02-19T01:49:02;99931.00;;;9.80
75822;BMP180;64454;51.984;9.838;2023-02-19T01:51:32;99928.00;;;9.70
75822;BMP180;64454;51.984;9.838;2023-02-19T01:54:04;99926.00;;;9.60
75822;BMP180;64454;51.984;9.838;2023-02-19T01:56:33;99916.00;;;9.70
75822;BMP180;64454;51.984;9.838;2023-02-19T01:59:01;99928.00;;;9.80
75822;BMP180;64454;51.984;9.838;2023-02-19T02:01:30;99929.00;;;10.00
75822;BMP180;64454;51.984;9.838;2023-02-19T02:03:57;99930.00;;;9.90
75822;BMP180;64454;51.984;9.838;2023-02-19T02:06:29;99928.00;;;9.80
75822;BMP180;64454;51.984;9.838;2023-02-19T02:08:58;99938.00;;;9.80
75822;BMP180;64454;51.984;9.838;2023-02-19T02:11:47;99926.00;;;9.80
75822;BMP180;64454;51.984;9.838;2023-02-19T02:14:17;99927.00;;;9.80
75822;BMP180;64454;51.984;9.838;2023-02-19T02:16:57;99926.00;;;9.70
75822;BMP180;64454;51.984;9.838;2023-02-19T02:19:50;99927.00;;;9.70
75822;BMP180;64454;51.984;9.838;2023-02-19T02:22:28;99932.00;;;9.90
75822;BMP180;64454;51.984;9.838;2023-02-19T02:25:19;99936.00;;;9.90
75822;BMP180;64454;51.984;9.838;2023-02-19T02:28:05;99922.00;;;9.90
75822;BMP180;64454;51.984;9.838;2023-02-19T02:30:41;99929.00;;;9.80
75822;BMP180;64454;51.984;9.838;2023-02-19T02:33:20;99928.00;;;9.80
75822;BMP180;64454;51.984;9.838;2023-02-19T02:35:57;99929.00;;;9.90
75822;BMP180;64454;51.984;9.838;2023-02-19T02:38:28;99927.00;;;9.70
75822;BMP180;64454;51.984;9.838;2023-02-19T02:40:57;99922.00;;;9.70
75822;BMP180;64454;51.984;9.838;2023-02-19T02:43:24;99915.00;;;9.70
75822;BMP180;64454;51.984;9.838;2023-02-19T02:45:52;99924.00;;;9.70
75822;BMP180;64454;51.984;9.838;2023-02-19T02:48:29;99927.00;;;9.80
75822;BMP180;64454;51.984;9.838;2023-02-19T02:51:03;99921.00;;;9.70
75822;BMP180;64454;51.984;9.838;2023-02-19T02:53:36;99932.00;;;9.70
75822;BMP180;64454;51.984;9.838;2023-02-19T02:56:25;99927.00;;;9.80
75822;BMP180;64454;51.984;9.838;2023-02-19T02:58:53;99927.00;;;9.70
75822;BMP180;64454;51.984;9.838;2023-02-19T03:01:27;99921.00;;;9.70
75822;BMP180;64454;51.984;9.838;2023-02-19T03:04:20;99920.00;;;9.80
75822;BMP180;64454;51.984;9.838;2023-02-19T03:06:49;99931.00;;;9.80
75822;BMP180;64454;51.984;9.838;2023-02-19T03:09:23;99921.00;;;9.70
75822;BMP180;64454;51.984;9.838;2023-02-19T03:11:57;99923.00;;;9.80
75822;BMP180;64454;51.984;9.838;2023-02-19T03:14:47;99918.00;;;9.70
75822;BMP180;64454;51.984;9.838;2023-02-19T03:17:40;99922.00;;;9.80
75822;BMP180;64454;51.984;9.838;2023-02-19T03:20:26;99924.00;;;9.80
75822;BMP180;64454;51.984;9.838;2023-02-19T03:22:55;99921.00;;;9.80
75822;BMP180;64454;51.984;9.838;2023-02-19T03:25:29;99912.00;;;9.70
75822;BMP180;64454;51.984;9.838;2023-02-19T03:28:18;99922.00;;;9.90
75822;BMP180;64454;51.984;9.838;2023-02-19T03:31:09;99929.00;;;9.80
75822;BMP180;64454;51.984;9.838;2023-02-19T03:33:40;99920.00;;;9.80
75822;BMP180;64454;51.984;9.838;2023-02-19T03:36:13;99928.00;;;9.80
75822;BMP180;64454;51.984;9.838;2023-02-19T03:38:48;99921.00;;;9.90
75822;BMP180;64454;51.984;9.838;2023-02-19T03:41:32;99921.00;;;9.80
75822;BMP180;64454;51.984;9.838;2023-02-19T03:44:09;99924.00;;;9.90
75822;BMP180;64454;51.984;9.838;2023-02-19T03:46:47;99928.00;;;9.70
75822;BMP180;64454;51.984;9.838;2023-02-19T03:49:27;99930.00;;;9.80
75822;BMP180;64454;51.984;9.838;2023-02-19T03:52:00;99931.00;;;9.80
75822;BMP180;64454;51.984;9.838;2023-02-19T03:54:34;99935.00;;;9.90
75822;BMP180;64454;51.984;9.838;2023-02-19T03:57:10;99930.00;;;9.90
75822;BMP180;64454;51.984;9.838;2023-02-19T03:59:45;99939.00;;;9.80
75822;BMP180;64454;51.984;9.838;2023-02-19T04:02:25;99938.00;;;9.80
75822;BMP180;64454;51.984;9.838;2023-02-19T04:05:03;99941.00;;;10.00
75822;BMP180;64454;51.984;9.838;2023-02-19T04:07:34;99943.00;;;9.90
75822;BMP180;64454;51.984;9.838;2023-02-19T04:10:04;99941.00;;;9.80
75822;BMP180;64454;51.984;9.838;2023-02-19T04:12:34;99946.00;;;9.90
75822;BMP180;64454;51.984;9.838;2023-02-19T04:15:07;99940.00;;;9.90
75822;BMP180;64454;51.984;9.838;2023-02-19T04:17:40;99945.00;;;9.80
75822;BMP180;64454;51.984;9.838;2023-02-19T04:20:13;99952.00;;;9.90
75822;BMP180;64454;51.984;9.838;2023-02-19T04:22:41;99955.00;;;9.90
75822;BMP180;64454;51.984;9.838;2023-02-19T04:25:08;99949.00;;;9.90
75822;BMP180;64454;51.984;9.838;2023-02-19T04:27:36;99959.00;;;9.70
75822;BMP180;64454;51.984;9.838;2023-02-19T04:30:05;99957.00;;;9.70
75822;BMP180;64454;51.984;9.838;2023-02-19T04:32:33;99968.00;;;9.80
75822;BMP180;64454;51.984;9.838;2023-02-19T04:34:59;99965.00;;;9.80
75822;BMP180;64454;51.984;9.838;2023-02-19T04:37:28;99968.00;;;9.90
75822;BMP180;64454;51.984;9.838;2023-02-19T04:39:54;99966.00;;;9.80
75822;BMP180;64454;51.984;9.838;2023-02-19T04:42:21;99968.00;;;9.80
75822;BMP180;64454;51.984;9.838;2023-02-19T04:44:48;99968.00;;;9.90
75822;BMP180;64454;51.984;9.838;2023-02-19T04:47:15;99970.00;;;9.90
75822;BMP180;64454;51.984;9.838;2023-02-19T04:49:42;99978.00;;;9.90
75822;BMP180;64454;51.984;9.838;2023-02-19T04:52:09;99976.00;;;9.80
75822;BMP180;64454;51.984;9.838;2023-02-19T04:54:37;99981.00;;;9.90
75822;BMP180;64454;51.984;9.838;2023-02-19T04:57:04;99986.00;;;10.00
75822;BMP180;64454;51.984;9.838;2023-02-19T04:59:31;99985.00;;;9.80
75822;BMP180;64454;51.984;9.838;2023-02-19T05:01:58;99991.00;;;9.70
75822;BMP180;64454;51.984;9.838;2023-02-19T05:04:24;99996.00;;;9.80
75822;BMP180;64454;51.984;9.838;2023-02-19T05:06:51;99999.00;;;9.80
75822;BMP180;64454;51.984;9.838;2023-02-19T05:09:19;99991.00;;;9.90
75822;BMP180;64454;51.984;9.838;2023-02-19T05:11:47;99992.00;;;9.80
75822;BMP180;64454;51.984;9.838;2023-02-19T05:14:15;99998.00;;;9.90
75822;BMP180;64454;51.984;9.838;2023-02-19T05:16:43;100000.00;;;9.80
75822;BMP180;64454;51.984;9.838;2023-02-19T05:19:10;100003.00;;;9.80
75822;BMP180;64454;51.984;9.838;2023-02-19T05:21:37;100001.00;;;9.80
75822;BMP180;64454;51.984;9.838;2023-02-19T05:24:05;99992.00;;;9.90
75822;BMP180;64454;51.984;9.838;2023-02-19T05:26:32;100022.00;;;9.80
75822;BMP180;64454;51.984;9.838;2023-02-19T05:29:01;100035.00;;;9.60
75822;BMP180;64454;51.984;9.838;2023-02-19T05:31:27;100037.00;;;9.50
75822;BMP180;64454;51.984;9.838;2023-02-19T05:33:55;100042.00;;;9.50
75822;BMP180;64454;51.984;9.838;2023-02-19T05:36:23;100038.00;;;9.30
75822;BMP180;64454;51.984;9.838;2023-02-19T05:38:52;100055.00;;;9.20
75822;BMP180;64454;51.984;9.838;2023-02-19T05:41:23;100061.00;;;9.30
75822;BMP180;64454;51.984;9.838;2023-02-19T05:43:51;100076.00;;;9.00
75822;BMP180;64454;51.984;9.838;2023-02-19T05:46:22;100074.00;;;8.80
75822;BMP180;64454;51.984;9.838;2023-02-19T05:48:51;100093.00;;;8.50
75822;BMP180;64454;51.984;9.838;2023-02-19T05:51:20;100093.00;;;8.50
75822;BMP180;64454;51.984;9.838;2023-02-19T05:53:48;100110.00;;;8.30
75822;BMP180;64454;51.984;9.838;2023-02-19T05:56:31;100134.00;;;8.50
75822;BMP180;64454;51.984;9.838;2023-02-19T05:58:59;100135.00;;;8.30
75822;BMP180;64454;51.984;9.838;2023-02-19T06:01:29;100141.00;;;8.10
75822;BMP180;64454;51.984;9.838;2023-02-19T06:03:57;100137.00;;;7.90
75822;BMP180;64454;51.984;9.838;2023-02-19T06:06:25;100144.00;;;8.10
75822;BMP180;64454;51.984;9.838;2023-02-19T06:08:52;100147.00;;;8.10
75822;BMP180;64454;51.984;9.838;2023-02-19T06:11:20;100168.00;;;7.80
75822;BMP180;64454;51.984;9.838;2023-02-19T06:13:47;100161.00;;;8.20
75822;BMP180;64454;51.984;9.838;2023-02-19T06:16:15;100165.00;;;7.90
75822;BMP180;64454;51.984;9.838;2023-02-19T06:18:44;100172.00;;;7.90
75822;BMP180;64454;51.984;9.838;2023-02-19T06:21:12;100181.00;;;7.90
75822;BMP180;64454;51.984;9.838;2023-02-19T06:23:39;100192.00;;;7.90
75822;BMP180;64454;51.984;9.838;2023-02-19T06:26:09;100207.00;;;7.80
75822;BMP180;64454;51.984;9.838;2023-02-19T06:28:36;100211.00;;;7.90
75822;BMP180;64454;51.984;9.838;2023-02-19T06:31:05;100218.00;;;7.70
75822;BMP180;64454;51.984;9.838;2023-02-19T06:33:33;100227.00;;;7.70
75822;BMP180;64454;51.984;9.838;2023-02-19T06:36:03;100240.00;;;7.80
75822;BMP180;64454;51.984;9.838;2023-02-19T06:38:30;100229.00;;;7.70
75822;BMP180;64454;51.984;9.838;2023-02-19T06:41:00;100228.00;;;7.70
75822;BMP180;64454;51.984;9.838;2023-02-19T06:43:27;100233.00;;;7.50
75822;BMP180;64454;51.984;9.838;2023-02-19T06:45:57;100247.00;;;7.60
75822;BMP180;64454;51.984;9.838;2023-02-19T06:48:25;100251.00;;;7.70
75822;BMP180;64454;51.984;9.838;2023-02-19T06:50:52;100259.00;;;7.80
75822;BMP180;64454;51.984;9.838;2023-02-19T06:53:21;100261.00;;;7.70
75822;BMP180;64454;51.984;9.838;2023-02-19T06:55:55;100274.00;;;7.60
75822;BMP180;64454;51.984;9.838;2023-02-19T06:58:22;100279.00;;;7.80
75822;BMP180;64454;51.984;9.838;2023-02-19T07:00:49;100289.00;;;7.50
75822;BMP180;64454;51.984;9.838;2023-02-19T07:03:16;100294.00;;;7.40
75822;BMP180;64454;51.984;9.838;2023-02-19T07:05:42;100294.00;;;7.60
75822;BMP180;64454;51.984;9.838;2023-02-19T07:08:09;100309.00;;;7.70
75822;BMP180;64454;51.984;9.838;2023-02-19T07:10:40;100314.00;;;7.60
75822;BMP180;64454;51.984;9.838;2023-02-19T07:13:07;100320.00;;;7.60
75822;BMP180;64454;51.984;9.838;2023-02-19T07:15:34;100318.00;;;7.70
75822;BMP180;64454;51.984;9.838;2023-02-19T07:18:00;100331.00;;;7.70
75822;BMP180;64454;51.984;9.838;2023-02-19T07:20:29;100335.00;;;7.60
75822;BMP180;64454;51.984;9.838;2023-02-19T07:22:56;100345.00;;;7.80
75822;BMP180;64454;51.984;9.838;2023-02-19T07:25:23;100352.00;;;7.60
75822;BMP180;64454;51.984;9.838;2023-02-19T07:27:51;100362.00;;;7.60
75822;BMP180;64454;51.984;9.838;2023-02-19T07:30:18;100374.00;;;7.50
75822;BMP180;64454;51.984;9.838;2023-02-19T07:32:45;100379.00;;;7.30
75822;BMP180;64454;51.984;9.838;2023-02-19T07:35:12;100396.00;;;7.10
75822;BMP180;64454;51.984;9.838;2023-02-19T07:37:39;100401.00;;;7.00
75822;BMP180;64454;51.984;9.838;2023-02-19T07:40:07;100410.00;;;7.30
75822;BMP180;64454;51.984;9.838;2023-02-19T07:42:34;100409.00;;;7.00
75822;BMP180;64454;51.984;9.838;2023-02-19T07:45:03;100426.00;;;7.10
75822;BMP180;64454;51.984;9.838;2023-02-19T07:47:29;100426.00;;;6.80
75822;BMP180;64454;51.984;9.838;2023-02-19T07:49:56;100438.00;;;6.90
75822;BMP180;64454;51.984;9.838;2023-02-19T07:52:23;100439.00;;;7.20
75822;BMP180;64454;51.984;9.838;2023-02-19T07:54:50;100449.00;;;6.90
75822;BMP180;64454;51.984;9.838;2023-02-19T07:57:17;100456.00;;;6.80
75822;BMP180;64454;51.984;9.838;2023-02-19T07:59:43;100470.00;;;6.80
75822;BMP180;64454;51.984;9.838;2023-02-19T08:02:16;100477.00;;;6.50
75822;BMP180;64454;51.984;9.838;2023-02-19T08:05:04;100477.00;;;6.70
75822;BMP180;64454;51.984;9.838;2023-02-19T08:07:31;100480.00;;;6.60
75822;BMP180;64454;51.984;9.838;2023-02-19T08:09:58;100484.00;;;6.90
75822;BMP180;64454;51.984;9.838;2023-02-19T08:12:39;100484.00;;;6.20
75822;BMP180;64454;51.984;9.838;2023-02-19T08:15:24;100495.00;;;6.50
75822;BMP180;64454;51.984;9.838;2023-02-19T08:17:52;100499.00;;;6.50
75822;BMP180;64454;51.984;9.838;2023-02-19T08:20:19;100517.00;;;6.50
75822;BMP180;64454;51.984;9.838;2023-02-19T08:22:45;100517.00;;;6.70
75822;BMP180;64454;51.984;9.838;2023-02-19T08:25:12;100519.00;;;6.70
75822;BMP180;64454;51.984;9.838;2023-02-19T08:27:39;100526.00;;;6.80
75822;BMP180;64454;51.984;9.838;2023-02-19T08:30:07;100533.00;;;6.40
75822;BMP180;64454;51.984;9.838;2023-02-19T08:32:34;100541.00;;;6.70
75822;BMP180;64454;51.984;9.838;2023-02-19T08:35:03;100541.00;;;6.70
75822;BMP180;64454;51.984;9.838;2023-02-19T08:37:30;100552.00;;;6.70
75822;BMP180;64454;51.984;9.838;2023-02-19T08:39:57;100549.00;;;6.60
75822;BMP180;64454;51.984;9.838;2023-02-19T08:42:23;100552.00;;;6.80
75822;BMP180;64454;51.984;9.838;2023-02-19T08:44:50;100549.00;;;7.00
75822;BMP180;64454;51.984;9.838;2023-02-19T08:47:17;100557.00;;;6.90
75822;BMP180;64454;51.984;9.838;2023-02-19T08:49:44;100557.00;;;6.80
75822;BMP180;64454;51.984;9.838;2023-02-19T08:52:12;100565.00;;;6.90
75822;BMP180;64454;51.984;9.838;2023-02-19T08:54:38;100567.00;;;6.80
75822;BMP180;64454;51.984;9.838;2023-02-19T08:57:05;100579.00;;;6.90
75822;BMP180;64454;51.984;9.838;2023-02-19T08:59:32;100576.00;;;6.60
75822;BMP180;64454;51.984;9.838;2023-02-19T09:01:59;100586.00;;;7.40
75822;BMP180;64454;51.984;9.838;2023-02-19T09:04:26;100589.00;;;6.80
75822;BMP180;64454;51.984;9.838;2023-02-19T09:06:53;100590.00;;;7.10
75822;BMP180;64454;51.984;9.838;2023-02-19T09:09:21;100594.00;;;7.20
75822;BMP180;64454;51.984;9.838;2023-02-19T09:11:48;100586.00;;;7.20
75822;BMP180;64454;51.984;9.838;2023-02-19T09:14:16;100588.00;;;7.80
75822;BMP180;64454;51.984;9.838;2023-02-19T09:16:44;100594.00;;;7.50
75822;BMP180;64454;51.984;9.838;2023-02-19T09:19:11;100599.00;;;7.70
75822;BMP180;64454;51.984;9.838;2023-02-19T09:21:38;100596.00;;;7.50
75822;BMP180;64454;51.984;9.838;2023-02-19T09:24:07;100601.00;;;8.20
75822;BMP180;64454;51.984;9.838;2023-02-19T09:26:35;100596.00;;;8.50
75822;BMP180;64454;51.984;9.838;2023-02-19T09:29:02;100605.00;;;9.50
75822;BMP180;64454;51.984;9.838;2023-02-19T09:31:29;100601.00;;;9.10
75822;BMP180;64454;51.984;9.838;2023-02-19T09:33:56;100592.00;;;10.40
75822;BMP180;64454;51.984;9.838;2023-02-19T09:36:22;100591.00;;;10.20
75822;BMP180;64454;51.984;9.838;2023-02-19T09:38:49;100582.00;;;10.90
75822;BMP180;64454;51.984;9.838;2023-02-19T09:41:25;100592.00;;;11.60
75822;BMP180;64454;51.984;9.838;2023-02-19T09:43:56;100612.00;;;11.20
75822;BMP180;64454;51.984;9.838;2023-02-19T09:46:29;100625.00;;;10.60
75822;BMP180;64454;51.984;9.838;2023-02-19T09:49:05;100625.00;;;9.70
75822;BMP180;64454;51.984;9.838;2023-02-19T09:51:35;100635.00;;;9.70
75822;BMP180;64454;51.984;9.838;2023-02-19T09:54:05;100652.00;;;9.70
75822;BMP180;64454;51.984;9.838;2023-02-19T09:56:33;100670.00;;;9.80
75822;BMP180;64454;51.984;9.838;2023-02-19T09:59:02;100671.00;;;9.10
75822;BMP180;64454;51.984;9.838;2023-02-19T10:01:33;100677.00;;;8.80
75822;BMP180;64454;51.984;9.838;2023-02-19T10:04:04;100666.00;;;9.00
75822;BMP180;64454;51.984;9.838;2023-02-19T10:06:31;100671.00;;;8.90
75822;BMP180;64454;51.984;9.838;2023-02-19T10:09:18;100672.00;;;9.20
75822;BMP180;64454;51.984;9.838;2023-02-19T10:11:48;100678.00;;;9.20
75822;BMP180;64454;51.984;9.838;2023-02-19T10:14:22;100684.00;;;9.40
75822;BMP180;64454;51.984;9.838;2023-02-19T10:16:52;100679.00;;;10.50
75822;BMP180;64454;51.984;9.838;2023-02-19T10:19:20;100681.00;;;12.50
75822;BMP180;64454;51.984;9.838;2023-02-19T10:21:47;100695.00;;;14.40
75822;BMP180;64454;51.984;9.838;2023-02-19T10:24:23;100693.00;;;15.50
75822;BMP180;64454;51.984;9.838;2023-02-19T10:26:50;100696.00;;;14.70
75822;BMP180;64454;51.984;9.838;2023-02-19T10:29:21;100700.00;;;14.20
75822;BMP180;64454;51.984;9.838;2023-02-19T10:32:13;100705.00;;;13.30
75822;BMP180;64454;51.984;9.838;2023-02-19T10:34:41;100724.00;;;14.20
75822;BMP180;64454;51.984;9.838;2023-02-19T10:37:13;100724.00;;;13.30
75822;BMP180;64454;51.984;9.838;2023-02-19T10:39:43;100725.00;;;13.90
75822;BMP180;64454;51.984;9.838;2023-02-19T10:42:20;100732.00;;;13.40
75822;BMP180;64454;51.984;9.838;2023-02-19T10:44:53;100738.00;;;12.90
75822;BMP180;64454;51.984;9.838;2023-02-19T10:47:25;100750.00;;;13.40
75822;BMP180;64454;51.984;9.838;2023-02-19T10:49:56;100747.00;;;12.70
75822;BMP180;64454;51.984;9.838;2023-02-19T10:52:27;100749.00;;;12.10
75822;BMP180;64454;51.984;9.838;2023-02-19T10:55:13;100756.00;;;11.90
75822;BMP180;64454;51.984;9.838;2023-02-19T10:57:40;100766.00;;;12.70
75822;BMP180;64454;51.984;9.838;2023-02-19T11:00:22;100775.00;;;12.40
75822;BMP180;64454;51.984;9.838;2023-02-19T11:03:13;100771.00;;;12.00
75822;BMP180;64454;51.984;9.838;2023-02-19T11:05:53;100766.00;;;11.90
75822;BMP180;64454;51.984;9.838;2023-02-19T11:08:23;100767.00;;;11.60
75822;BMP180;64454;51.984;9.838;2023-02-19T11:10:50;100772.00;;;11.80
75822;BMP180;64454;51.984;9.838;2023-02-19T11:13:25;100770.00;;;11.80
75822;BMP180;64454;51.984;9.838;2023-02-19T11:15:57;100760.00;;;11.70
75822;BMP180;64454;51.984;9.838;2023-02-19T11:18:27;100745.00;;;13.00
75822;BMP180;64454;51.984;9.838;2023-02-19T11:20:56;100759.00;;;14.00
75822;BMP180;64454;51.984;9.838;2023-02-19T11:23:28;100748.00;;;14.50
75822;BMP180;64454;51.984;9.838;2023-02-19T11:25:59;100738.00;;;15.40
75822;BMP180;64454;51.984;9.838;2023-02-19T11:28:32;100744.00;;;16.10
75822;BMP180;64454;51.984;9.838;2023-02-19T11:31:22;100753.00;;;16.00
75822;BMP180;64454;51.984;9.838;2023-02-19T11:33:55;100739.00;;;15.40
75822;BMP180;64454;51.984;9.838;2023-02-19T11:36:29;100773.00;;;14.90
75822;BMP180;64454;51.984;9.838;2023-02-19T11:39:00;100782.00;;;14.30
75822;BMP180;64454;51.984;9.838;2023-02-19T11:42:08;100786.00;;;12.60
75822;BMP180;64454;51.984;9.838;2023-02-19T11:44:49;100785.00;;;13.60
75822;BMP180;64454;51.984;9.838;2023-02-19T11:47:44;100786.00;;;12.70
75822;BMP180;64454;51.984;9.838;2023-02-19T11:50:25;100782.00;;;13.40
75822;BMP180;64454;51.984;9.838;2023-02-19T11:53:12;100783.00;;;13.50
75822;BMP180;64454;51.984;9.838;2023-02-19T11:55:55;100792.00;;;13.60
75822;BMP180;64454;51.984;9.838;2023-02-19T11:58:55;100782.00;;;12.80
75822;BMP180;64454;51.984;9.838;2023-02-19T12:01:59;100783.00;;;12.90
75822;BMP180;64454;51.984;9.838;2023-02-19T12:05:03;100787.00;;;12.80
75822;BMP180;64454;51.984;9.838;2023-02-19T12:08:19;100797.00;;;11.90
75822;BMP180;64454;51.984;9.838;2023-02-19T12:11:07;100810.00;;;12.20
75822;BMP180;64454;51.984;9.838;2023-02-19T12:14:00;100805.00;;;11.70
75822;BMP180;64454;51.984;9.838;2023-02-19T12:16:33;100781.00;;;11.90
75822;BMP180;64454;51.984;9.838;2023-02-19T12:19:38;100777.00;;;12.10
75822;BMP180;64454;51.984;9.838;2023-02-19T12:22:25;100786.00;;;12.60
75822;BMP180;64454;51.984;9.838;2023-02-19T12:25:45;100784.00;;;13.30
75822;BMP180;64454;51.984;9.838;2023-02-19T12:28:30;100786.00;;;13.20
75822;BMP180;64454;51.984;9.838;2023-02-19T12:34:33;100794.00;;;12.10
75822;BMP180;64454;51.984;9.838;2023-02-19T12:37:21;100797.00;;;12.20
75822;BMP180;64454;51.984;9.838;2023-02-19T12:40:12;100798.00;;;12.30
75822;BMP180;64454;51.984;9.838;2023-02-19T12:42:56;100792.00;;;12.70
75822;BMP180;64454;51.984;9.838;2023-02-19T12:45:32;100806.00;;;12.60
75822;BMP180;64454;51.984;9.838;2023-02-19T12:48:05;100798.00;;;13.50
75822;BMP180;64454;51.984;9.838;2023-02-19T12:50:36;100800.00;;;13.60
75822;BMP180;64454;51.984;9.838;2023-02-19T12:53:27;100792.00;;;14.60
75822;BMP180;64454;51.984;9.838;2023-02-19T12:55:56;100797.00;;;15.10
75822;BMP180;64454;51.984;9.838;2023-02-19T12:58:31;100808.00;;;15.40
75822;BMP180;64454;51.984;9.838;2023-02-19T13:01:02;100801.00;;;15.50
75822;BMP180;64454;51.984;9.838;2023-02-19T13:03:37;100825.00;;;17.10
75822;BMP180;64454;51.984;9.838;2023-02-19T13:06:10;100828.00;;;16.50
75822;BMP180;64454;51.984;9.838;2023-02-19T13:08:48;100837.00;;;15.70
75822;BMP180;64454;51.984;9.838;2023-02-19T13:11:23;100838.00;;;14.50
75822;BMP180;64454;51.984;9.838;2023-02-19T13:13:56;100823.00;;;14.30
75822;BMP180;64454;51.984;9.838;2023-02-19T13:16:27;100845.00;;;14.70
75822;BMP180;64454;51.984;9.838;2023-02-19T13:19:01;100844.00;;;15.10
75822;BMP180;64454;51.984;9.838;2023-02-19T13:21:32;100835.00;;;15.50
75822;BMP180;64454;51.984;9.838;2023-02-19T13:24:26;100824.00;;;16.50
75822;BMP180;64454;51.984;9.838;2023-02-19T13:27:09;100825.00;;;16.50
75822;BMP180;64454;51.984;9.838;2023-02-19T13:30:03;100849.00;;;15.80
75822;BMP180;64454;51.984;9.838;2023-02-19T13:32:53;100854.00;;;14.90
75822;BMP180;64454;51.984;9.838;2023-02-19T13:35:32;100852.00;;;13.80
75822;BMP180;64454;51.984;9.838;2023-02-19T13:38:10;100858.00;;;15.10
75822;BMP180;64454;51.984;9.838;2023-02-19T13:40:41;100855.00;;;14.10
75822;BMP180;64454;51.984;9.838;2023-02-19T13:43:24;100850.00;;;13.90
75822;BMP180;64454;51.984;9.838;2023-02-19T13:45:56;100858.00;;;14.20
75822;BMP180;64454;51.984;9.838;2023-02-19T13:48:30;100847.00;;;13.70
75822;BMP180;64454;51.984;9.838;2023-02-19T13:51:38;100848.00;;;13.90
75822;BMP180;64454;51.984;9.838;2023-02-19T13:54:27;100849.00;;;14.00
75822;BMP180;64454;51.984;9.838;2023-02-19T13:57:25;100846.00;;;13.60
75822;BMP180;64454;51.984;9.838;2023-02-19T13:59:54;100847.00;;;13.20
75822;BMP180;64454;51.984;9.838;2023-02-19T14:02:30;100851.00;;;12.30
75822;BMP180;64454;51.984;9.838;2023-02-19T14:05:01;100851.00;;;12.40
75822;BMP180;64454;51.984;9.838;2023-02-19T14:07:53;100859.00;;;12.00
75822;BMP180;64454;51.984;9.838;2023-02-19T14:10:53;100861.00;;;11.70
75822;BMP180;64454;51.984;9.838;2023-02-19T14:17:24;100857.00;;;11.30
75822;BMP180;64454;51.984;9.838;2023-02-19T14:19:59;100859.00;;;11.30
75822;BMP180;64454;51.984;9.838;2023-02-19T14:23:15;100850.00;;;11.10
75822;BMP180;64454;51.984;9.838;2023-02-19T14:25:51;100863.00;;;10.70
75822;BMP180;64454;51.984;9.838;2023-02-19T14:28:36;100862.00;;;10.80
75822;BMP180;64454;51.984;9.838;2023-02-19T14:31:20;100861.00;;;11.40
75822;BMP180;64454;51.984;9.838;2023-02-19T14:33:51;100864.00;;;10.80
75822;BMP180;64454;51.984;9.838;2023-02-19T14:36:30;100866.00;;;10.60
75822;BMP180;64454;51.984;9.838;2023-02-19T14:39:01;100873.00;;;10.80
75822;BMP180;64454;51.984;9.838;2023-02-19T14:41:33;100867.00;;;11.40
75822;BMP180;64454;51.984;9.838;2023-02-19T14:44:05;100870.00;;;11.10
75822;BMP180;64454;51.984;9.838;2023-02-19T14:46:38;100877.00;;;10.90
75822;BMP180;64454;51.984;9.838;2023-02-19T14:49:17;100876.00;;;11.20